Ana Sayfa
METAR-TAF:

METAR-TAF

Havaalanları :

Cabo San Lucas, Meksika

Enlem: 22-56-51N, Boylam: 109-56-13W, yükseklik: 210 m

Güncel hava durumu gözlemi

Rapor saat 17:40 UTC de 1 saat ve 31 dakika önce yapıldı.
Rüzgar güneybatıdan 16 kt
Sıcaklık 23°C
Nem 69%
Basınç 1014 hPa
Görüş mesafesi: 16.1 km
Açık gökyüzü

METAR: MMSL 311740Z 23016KT 10SM SKC 23/17 A2993 RMK SC

Saat: 12:11 (19:11 UTC)

Tahmin

Rapor saat 16:57 UTC de 2 saat ve 14 dakika önce yapıldı.
Ayın 31'si saat 18 UTC'den ayın 01'si saat 18 UTC'ye kadar geçerli Tahmin
Rüzgar batıdan 12 kt
Görüş mesafesi: 10 km
Açık gökyüzü
Ayın 01'si saat 1200 UTC'den
Rüzgar güney/güneybatıdan 10 kt
Görüş mesafesi: 10 km
2000 ft yükseklikte parçalı bulutlu

TAF: MMSL 311657Z 3118/0118 28012KT P6SM SKC FM011200 20010KT P6SM SCT020

4.000'den fazla havaalanı için hava durumu gözlemleri ve tahminleri (METAR ve TAF raporları).

Kullanılabilir istasyonlar harita üzerinde sarı ve kırmızı noktalarla gösterilir.

İstasyonun adını görmek için fareyi noktanın üzerinde gezdirin.

Sonrasında hava gözlem ve tahminlerini görmek için tıklayın.

Haritayı değiştirmek için: yaklaştırmak için siyah artı işaretli yeşil düğmeye ve uzaklaştırmak için de eksi işaretli düğmeye hızla tıklayın; bitişik haritalar için yeşil okları kullanın.


METAR-TAF: